createdAt,value
2022-10-01T00:00:47.621Z,100119.38
2022-10-01T00:02:19.697Z,100112.53
2022-10-01T00:03:51.622Z,100107.44
2022-10-01T00:05:23.674Z,100114.50
2022-10-01T00:06:59.424Z,100115.34
2022-10-01T00:08:32.541Z,100117.94
2022-10-01T00:10:05.174Z,100116.34
2022-10-01T00:11:37.224Z,100114.59
2022-10-01T00:13:10.162Z,100120.69
2022-10-01T00:14:42.108Z,100124.16
2022-10-01T00:16:17.028Z,100120.72
2022-10-01T00:17:49.070Z,100124.28
2022-10-01T00:19:22.155Z,100116.47
2022-10-01T00:20:54.235Z,100108.69
2022-10-01T00:22:26.276Z,100112.09
2022-10-01T00:24:01.793Z,100114.53
2022-10-01T00:25:33.950Z,100119.94
2022-10-01T00:27:05.904Z,100105.31
2022-10-01T00:28:37.834Z,100104.47
2022-10-01T00:30:10.276Z,100104.47
2022-10-01T00:31:42.881Z,100088.91
2022-10-01T00:33:14.889Z,100096.00
2022-10-01T00:34:46.828Z,100087.41
2022-10-01T00:36:18.776Z,100091.78
2022-10-01T00:37:52.522Z,100081.38
2022-10-01T00:39:24.616Z,100085.78
2022-10-01T00:40:56.726Z,100082.38
2022-10-01T00:42:28.657Z,100074.72
2022-10-01T00:44:33.683Z,100078.00
2022-10-01T00:46:37.206Z,100075.41
2022-10-01T00:48:09.152Z,100071.16
2022-10-01T00:49:43.337Z,100070.25
2022-10-01T00:51:15.393Z,100062.47
2022-10-01T00:52:52.414Z,100072.78
2022-10-01T00:54:31.195Z,100075.47
2022-10-01T00:56:03.276Z,100075.59
2022-10-01T00:57:36.338Z,100079.00
2022-10-01T00:59:08.587Z,100075.56
2022-10-01T01:00:42.443Z,100080.56
2022-10-01T01:02:14.671Z,100086.81
2022-10-01T01:03:46.819Z,100094.66
2022-10-01T01:05:19.115Z,100099.84
2022-10-01T01:06:56.994Z,100106.69
2022-10-01T01:08:29.849Z,100101.53
2022-10-01T01:10:02.854Z,100101.47
2022-10-01T01:11:49.071Z,100093.72
2022-10-01T01:13:48.747Z,100099.81
2022-10-01T01:15:37.227Z,100097.34
2022-10-01T01:17:14.643Z,100100.03
2022-10-01T01:19:01.527Z,100090.53
2022-10-01T01:20:45.380Z,100092.16
2022-10-01T01:23:51.828Z,100099.16
2022-10-01T01:25:35.898Z,100096.50
2022-10-01T01:27:40.150Z,100100.03
2022-10-01T01:29:18.603Z,100089.69
2022-10-01T01:30:53.870Z,100090.53
2022-10-01T01:32:33.342Z,100087.81
2022-10-01T01:34:12.734Z,100087.88
2022-10-01T01:35:46.237Z,100084.50
2022-10-01T01:37:22.889Z,100087.00
2022-10-01T01:39:01.557Z,100087.09
2022-10-01T01:40:37.068Z,100078.38
2022-10-01T01:42:14.673Z,100079.25
2022-10-01T01:43:51.542Z,100080.19
2022-10-01T01:45:28.950Z,100075.84
2022-10-01T01:47:02.437Z,100079.44
2022-10-01T01:48:36.724Z,100079.34
2022-10-01T01:50:09.240Z,100079.50
2022-10-01T01:53:15.523Z,100073.56
2022-10-01T01:54:50.202Z,100068.34
2022-10-01T01:56:22.209Z,100078.03
2022-10-01T01:57:54.868Z,100074.56
2022-10-01T01:59:27.465Z,100078.97
2022-10-01T02:00:59.388Z,100085.97
2022-10-01T02:02:33.771Z,100084.19
2022-10-01T02:04:34.328Z,100092.91
2022-10-01T02:06:38.330Z,100086.03
2022-10-01T02:08:31.750Z,100088.69
2022-10-01T02:10:48.590Z,100093.78
2022-10-01T02:12:29.655Z,100093.06
2022-10-01T02:14:21.828Z,100089.66
2022-10-01T02:15:56.349Z,100092.22
2022-10-01T02:17:37.206Z,100087.00
2022-10-01T02:19:34.084Z,100087.00
2022-10-01T02:21:36.823Z,100087.84
2022-10-01T02:23:12.523Z,100088.00
2022-10-01T02:24:57.305Z,100089.84
2022-10-01T02:26:31.258Z,100091.66
2022-10-01T02:28:07.509Z,100091.72
2022-10-01T02:29:40.150Z,100087.44
2022-10-01T02:31:13.723Z,100080.44
2022-10-01T02:32:47.523Z,100086.53
2022-10-01T02:34:21.086Z,100086.53
2022-10-01T02:35:58.157Z,100096.06
2022-10-01T02:37:30.401Z,100098.78
2022-10-01T02:39:02.989Z,100096.13
2022-10-01T02:40:37.502Z,100099.47
2022-10-01T02:42:12.909Z,100093.41
2022-10-01T02:44:00.450Z,100095.22
2022-10-01T02:45:38.034Z,100092.56
2022-10-01T02:47:27.078Z,100095.16
2022-10-01T02:49:04.669Z,100095.31
2022-10-01T02:50:51.772Z,100102.16
2022-10-01T02:52:31.692Z,100101.50
2022-10-01T02:54:16.312Z,100119.63
2022-10-01T02:55:49.215Z,100122.34
2022-10-01T02:57:25.645Z,100125.00
2022-10-01T02:59:00.359Z,100132.16
2022-10-01T03:00:32.458Z,100133.09
2022-10-01T03:02:04.692Z,100132.28
2022-10-01T03:03:36.802Z,100128.84
2022-10-01T03:05:09.282Z,100126.22
2022-10-01T03:06:41.338Z,100130.56
2022-10-01T03:08:13.290Z,100121.06
2022-10-01T03:09:45.344Z,100120.22
2022-10-01T03:11:18.378Z,100125.38
2022-10-01T03:12:51.319Z,100125.47
2022-10-01T03:14:24.866Z,100119.47
2022-10-01T03:15:56.911Z,100124.78
2022-10-01T03:17:29.236Z,100117.03
2022-10-01T03:19:01.366Z,100125.66
2022-10-01T03:20:33.302Z,100117.81
2022-10-01T03:22:05.606Z,100116.88
2022-10-01T03:23:37.778Z,100107.41
2022-10-01T03:25:09.901Z,100111.75
2022-10-01T03:26:41.894Z,100107.41
2022-10-01T03:28:13.968Z,100109.19
2022-10-01T03:29:46.185Z,100104.88
2022-10-01T03:31:18.251Z,100104.88
2022-10-01T03:32:50.270Z,100110.13
2022-10-01T03:34:22.664Z,100105.78
2022-10-01T03:35:54.597Z,100098.03
2022-10-01T03:37:27.726Z,100112.59
2022-10-01T03:38:59.780Z,100107.41
2022-10-01T03:40:33.791Z,100111.72
2022-10-01T03:42:06.163Z,100115.97
2022-10-01T03:43:38.133Z,100117.66
2022-10-01T03:45:10.461Z,100120.22
2022-10-01T03:46:42.487Z,100122.75
2022-10-01T03:48:14.921Z,100126.22
2022-10-01T03:49:46.860Z,100123.53
2022-10-01T03:51:21.106Z,100121.69
2022-10-01T03:52:53.079Z,100115.66
2022-10-01T03:54:25.793Z,100121.69
2022-10-01T03:55:59.437Z,100112.09
2022-10-01T03:57:31.430Z,100130.38
2022-10-01T03:59:03.720Z,100122.66
2022-10-01T04:00:35.684Z,100130.38
2022-10-01T04:02:08.397Z,100134.69
2022-10-01T04:03:40.607Z,100132.97
2022-10-01T04:05:12.655Z,100126.94
2022-10-01T04:06:44.739Z,100133.00
2022-10-01T04:08:19.749Z,100127.84
2022-10-01T04:09:55.598Z,100129.66
2022-10-01T04:11:30.631Z,100130.50
2022-10-01T04:13:02.978Z,100131.28
2022-10-01T04:14:35.002Z,100127.78
2022-10-01T04:16:07.427Z,100134.72
2022-10-01T04:17:43.822Z,100136.50
2022-10-01T04:19:17.807Z,100133.94
2022-10-01T04:20:49.877Z,100132.25
2022-10-01T04:22:24.787Z,100138.94
2022-10-01T04:23:56.755Z,100134.75
2022-10-01T04:25:29.265Z,100135.59
2022-10-01T04:27:01.264Z,100125.19
2022-10-01T04:28:33.291Z,100118.28
2022-10-01T04:30:06.880Z,100119.97
2022-10-01T04:31:40.490Z,100114.78
2022-10-01T04:33:14.682Z,100114.69
2022-10-01T04:34:53.198Z,100114.78
2022-10-01T04:36:25.698Z,100110.34
2022-10-01T04:38:07.015Z,100110.34
2022-10-01T04:39:39.045Z,100105.97
2022-10-01T04:41:11.198Z,100109.47
2022-10-01T04:42:46.285Z,100104.19
2022-10-01T04:44:18.522Z,100100.78
2022-10-01T04:45:50.605Z,100104.25
2022-10-01T04:47:25.721Z,100106.84
2022-10-01T04:48:58.009Z,100103.34
2022-10-01T04:50:30.341Z,100105.09
2022-10-01T04:52:02.751Z,100103.38
2022-10-01T04:53:34.957Z,100096.38
2022-10-01T04:56:40.434Z,100105.78
2022-10-01T04:58:12.762Z,100101.28
2022-10-01T04:59:45.012Z,100112.47
2022-10-01T05:01:17.341Z,100110.59
2022-10-01T05:02:51.105Z,100110.41
2022-10-01T05:04:23.103Z,100104.28
2022-10-01T05:05:55.047Z,100099.00
2022-10-01T05:07:27.140Z,100086.72
2022-10-01T05:08:59.175Z,100094.34
2022-10-01T05:31:02.270Z,100112.88
2022-10-01T05:32:35.305Z,100101.53
2022-10-01T05:34:07.543Z,100103.16
2022-10-01T05:35:41.433Z,100107.16
2022-10-01T05:37:13.512Z,100100.19
2022-10-01T05:38:48.582Z,100111.09
2022-10-01T05:40:20.807Z,100110.16
2022-10-01T05:41:56.058Z,100100.41
2022-10-01T05:43:28.065Z,100105.34
2022-10-01T05:45:00.272Z,100105.19
2022-10-01T05:46:33.006Z,100115.38
2022-10-01T05:48:07.559Z,100117.69
2022-10-01T05:49:43.244Z,100107.16
2022-10-01T05:51:16.512Z,100107.81
2022-10-01T05:52:51.584Z,100115.44
2022-10-01T05:54:25.327Z,100114.50
2022-10-01T05:56:02.802Z,100129.78
2022-10-01T05:57:34.815Z,100133.19
2022-10-01T05:59:08.006Z,100137.28
2022-10-01T06:00:41.846Z,100146.69
2022-10-01T06:02:13.992Z,100124.91
2022-10-01T06:03:46.095Z,100135.13
2022-10-01T06:05:18.779Z,100132.31
2022-10-01T06:06:51.206Z,100135.56
2022-10-01T06:08:23.392Z,100134.44
2022-10-01T06:09:55.661Z,100125.56
2022-10-01T06:11:27.837Z,100124.44
2022-10-01T06:13:02.151Z,100120.66
2022-10-01T06:14:34.544Z,100121.34
2022-10-01T06:16:07.141Z,100132.44
2022-10-01T06:17:44.445Z,100135.59
2022-10-01T06:19:17.833Z,100137.91
2022-10-01T06:20:50.055Z,100134.72
2022-10-01T06:22:22.545Z,100134.72
2022-10-01T06:23:55.105Z,100135.31
2022-10-01T06:25:30.169Z,100129.84
2022-10-01T06:27:02.454Z,100122.66
2022-10-01T06:28:34.858Z,100115.44
2022-10-01T06:30:07.759Z,100117.75
2022-10-01T06:31:40.332Z,100122.78
2022-10-01T06:33:17.225Z,100124.19
2022-10-01T06:34:49.599Z,100123.09
2022-10-01T06:36:22.141Z,100115.91
2022-10-01T06:37:54.561Z,100121.72
2022-10-01T06:39:26.895Z,100123.22
2022-10-01T06:41:01.489Z,100121.09
2022-10-01T06:42:33.744Z,100128.63
2022-10-01T06:44:06.170Z,100132.63
2022-10-01T06:45:43.361Z,100129.66
2022-10-01T06:47:15.753Z,100120.53
2022-10-01T06:48:47.992Z,100108.94
2022-10-01T06:50:20.306Z,100116.28
2022-10-01T06:52:11.168Z,100115.84
2022-10-01T06:53:43.518Z,100119.66
2022-10-01T06:55:21.510Z,100126.13
2022-10-01T06:56:53.929Z,100122.03
2022-10-01T06:58:26.890Z,100119.00
2022-10-01T06:59:59.952Z,100114.06
2022-10-01T07:01:33.415Z,100111.91
2022-10-01T07:03:11.496Z,100106.13
2022-10-01T07:04:43.724Z,100104.97
2022-10-01T07:06:16.008Z,100108.97
2022-10-01T07:07:51.353Z,100105.13
2022-10-01T07:09:27.030Z,100107.19
2022-10-01T07:11:03.442Z,100104.75
2022-10-01T07:12:36.647Z,100108.75
2022-10-01T07:14:09.348Z,100103.94
2022-10-01T07:15:41.826Z,100106.97
2022-10-01T07:17:14.173Z,100120.38
2022-10-01T07:20:20.860Z,100113.97
2022-10-01T07:21:53.286Z,100122.31
2022-10-01T07:23:25.770Z,100117.41
2022-10-01T07:24:58.043Z,100124.69
2022-10-01T07:26:30.457Z,100111.97
2022-10-01T07:28:05.613Z,100097.22
2022-10-01T07:29:38.006Z,100084.47
2022-10-01T07:31:11.857Z,100085.66
2022-10-01T07:32:45.425Z,100084.34
2022-10-01T07:34:18.009Z,100090.72
2022-10-01T07:35:50.437Z,100084.88
2022-10-01T07:37:22.729Z,100089.75
2022-10-01T07:38:56.277Z,100105.94
2022-10-01T07:40:28.672Z,100101.16
2022-10-01T07:42:02.594Z,100107.88
2022-10-01T07:43:36.626Z,100106.53
2022-10-01T07:45:11.004Z,100102.50
2022-10-01T07:46:43.287Z,100105.63
2022-10-01T07:48:15.723Z,100101.78
2022-10-01T07:49:48.469Z,100101.13
2022-10-01T07:51:21.085Z,100109.31
2022-10-01T07:52:57.608Z,100118.38
2022-10-01T07:54:29.869Z,100117.06
2022-10-01T07:56:03.098Z,100117.25
2022-10-01T07:57:35.494Z,100108.97
2022-10-01T07:59:10.509Z,100109.19
2022-10-01T08:00:43.889Z,100109.69
2022-10-01T08:02:17.579Z,100107.59
2022-10-01T08:03:50.510Z,100110.66
2022-10-01T08:05:25.442Z,100106.72
2022-10-01T08:06:57.736Z,100111.59
2022-10-01T08:08:31.707Z,100107.59
2022-10-01T08:10:05.054Z,100105.34
2022-10-01T08:11:38.485Z,100105.69
2022-10-01T08:13:16.684Z,100099.78
2022-10-01T08:14:49.044Z,100093.34
2022-10-01T08:16:21.545Z,100096.25
2022-10-01T08:17:53.889Z,100100.81
2022-10-01T08:19:26.693Z,100093.03
2022-10-01T08:21:04.377Z,100091.31
2022-10-01T08:22:41.103Z,100078.66
2022-10-01T08:24:14.615Z,100067.13
2022-10-01T08:25:48.449Z,100060.91
2022-10-01T08:27:20.905Z,100056.31
2022-10-01T08:28:53.161Z,100053.25
2022-10-01T08:30:26.001Z,100046.44
2022-10-01T08:32:00.681Z,100040.50
2022-10-01T08:33:33.089Z,100032.22
2022-10-01T08:35:05.936Z,100037.50
2022-10-01T08:36:38.289Z,100036.22
2022-10-01T08:38:12.323Z,100033.84
2022-10-01T08:39:44.635Z,100026.41
2022-10-01T08:41:44.607Z,100020.00
2022-10-01T08:43:37.035Z,100023.50
2022-10-01T08:46:42.167Z,100024.03
2022-10-01T08:48:33.891Z,100020.13
2022-10-01T08:50:17.814Z,100021.13
2022-10-01T08:51:58.898Z,100023.44
2022-10-01T08:53:40.518Z,100019.69
2022-10-01T08:55:18.614Z,100022.84
2022-10-01T08:56:51.442Z,100027.28
2022-10-01T08:58:29.337Z,100023.94
2022-10-01T09:00:08.229Z,100036.81
2022-10-01T09:01:40.475Z,100035.84
2022-10-01T09:03:14.084Z,100039.94
2022-10-01T09:04:48.198Z,100032.00
2022-10-01T09:06:26.116Z,100036.34
2022-10-01T09:08:24.415Z,100038.16
2022-10-01T09:10:25.200Z,100044.09
2022-10-01T09:12:24.346Z,100041.31
2022-10-01T09:14:17.915Z,100039.97
2022-10-01T09:15:51.830Z,100045.41
2022-10-01T09:19:08.923Z,100046.59
2022-10-01T09:20:46.069Z,100038.69
2022-10-01T09:22:26.558Z,100041.78
2022-10-01T09:24:11.827Z,100032.75
2022-10-01T09:25:46.295Z,100032.75
2022-10-01T09:27:20.469Z,100026.31
2022-10-01T09:28:53.140Z,100017.41
2022-10-01T09:30:26.613Z,100027.88
2022-10-01T09:31:59.657Z,100009.28
2022-10-01T09:33:36.182Z,100014.56
2022-10-01T09:35:20.291Z,100021.69
2022-10-01T09:37:15.179Z,100026.75
2022-10-01T09:39:13.090Z,100021.53
2022-10-01T09:41:03.608Z,100019.16
2022-10-01T09:42:36.366Z,100027.53
2022-10-01T09:44:18.981Z,100022.22
2022-10-01T09:45:52.232Z,100028.59
2022-10-01T09:47:27.237Z,100026.53
2022-10-01T09:49:07.173Z,100025.69
2022-10-01T09:50:43.457Z,100029.19
2022-10-01T09:52:28.820Z,100032.13
2022-10-01T09:54:17.687Z,100036.00
2022-10-01T09:56:00.234Z,100032.75
2022-10-01T09:57:35.736Z,100044.19
2022-10-01T09:59:15.026Z,100046.75
2022-10-01T10:00:48.769Z,100046.03
2022-10-01T10:02:27.588Z,100052.03
2022-10-01T10:04:00.231Z,100049.19
2022-10-01T10:05:49.677Z,100053.38
2022-10-01T10:07:22.057Z,100058.47
2022-10-01T10:08:56.420Z,100052.22
2022-10-01T10:10:39.943Z,100057.53
2022-10-01T10:12:26.409Z,100064.75
2022-10-01T10:14:00.920Z,100057.16
2022-10-01T10:15:33.668Z,100048.69
2022-10-01T10:17:17.106Z,100045.94
2022-10-01T10:18:53.892Z,100048.69
2022-10-01T10:20:32.618Z,100047.88
2022-10-01T10:22:23.845Z,100053.28
2022-10-01T10:24:00.792Z,100053.41
2022-10-01T10:25:33.289Z,100050.31
2022-10-01T10:27:17.597Z,100045.00
2022-10-01T10:28:50.028Z,100052.47
2022-10-01T10:30:25.216Z,100047.66
2022-10-01T10:31:58.175Z,100048.75
2022-10-01T10:33:30.623Z,100051.25
2022-10-01T10:35:06.406Z,100049.31
2022-10-01T10:36:39.132Z,100056.56
2022-10-01T10:38:20.959Z,100051.84
2022-10-01T10:39:54.332Z,100060.91
2022-10-01T10:41:28.404Z,100059.09
2022-10-01T10:43:00.881Z,100056.44
2022-10-01T10:44:37.782Z,100060.44
2022-10-01T10:46:10.671Z,100055.94
2022-10-01T10:47:48.114Z,100052.78
2022-10-01T10:49:33.100Z,100056.56
2022-10-01T10:52:41.621Z,100044.84
2022-10-01T10:54:27.417Z,100043.88
2022-10-01T10:56:06.542Z,100038.44
2022-10-01T10:57:38.940Z,100028.06
2022-10-01T10:59:12.167Z,100036.88
2022-10-01T11:00:45.171Z,100045.66
2022-10-01T11:02:21.665Z,100042.91
2022-10-01T11:03:56.649Z,100055.22
2022-10-01T11:05:33.637Z,100067.88
2022-10-01T11:07:06.176Z,100067.63
2022-10-01T11:08:39.425Z,100060.66
2022-10-01T11:10:39.492Z,100050.75
2022-10-01T11:12:19.880Z,100037.84
2022-10-01T11:14:20.121Z,100032.78
2022-10-01T11:16:29.208Z,100028.31
2022-10-01T11:18:29.025Z,100031.47
2022-10-01T11:20:20.678Z,100017.50
2022-10-01T11:21:59.052Z,100027.84
2022-10-01T11:23:43.022Z,100017.38
2022-10-01T11:25:18.097Z,100021.63
2022-10-01T11:27:12.891Z,100009.31
2022-10-01T11:28:46.502Z,100000.91
2022-10-01T11:30:33.853Z,100005.34
2022-10-01T11:32:17.991Z,99999.31
2022-10-01T11:34:30.013Z,100006.56
2022-10-01T11:36:16.474Z,99998.84
2022-10-01T11:38:16.626Z,99977.03
2022-10-01T11:39:52.924Z,99962.31
2022-10-01T11:41:53.744Z,99954.38
2022-10-01T11:43:48.308Z,99962.59
2022-10-01T11:45:25.065Z,99968.84
2022-10-01T11:47:01.864Z,99965.47
2022-10-01T11:49:07.128Z,99962.81
2022-10-01T11:50:45.531Z,99955.19
2022-10-01T11:52:45.167Z,99960.63
2022-10-01T11:54:25.216Z,99958.94
2022-10-01T11:56:20.811Z,99953.75
2022-10-01T11:58:16.285Z,99959.78
2022-10-01T12:00:00.609Z,99964.97
2022-10-01T12:01:46.339Z,99957.13
2022-10-01T12:03:23.936Z,99963.28
2022-10-01T12:05:04.479Z,99952.81
2022-10-01T12:06:42.165Z,99951.22
2022-10-01T12:08:21.473Z,99937.13
2022-10-01T12:10:22.301Z,99923.75
2022-10-01T12:12:20.634Z,99916.41
2022-10-01T12:13:59.138Z,99923.41
2022-10-01T12:15:47.377Z,99932.56
2022-10-01T12:17:26.689Z,99946.28
2022-10-01T12:19:03.379Z,99947.28
2022-10-01T12:20:45.736Z,99952.59
2022-10-01T12:22:24.711Z,99933.16
2022-10-01T12:24:04.265Z,99920.16
2022-10-01T12:25:54.967Z,99903.53
2022-10-01T12:27:36.215Z,99890.66
2022-10-01T12:29:14.132Z,99889.78
2022-10-01T12:31:04.203Z,99894.97
2022-10-01T12:32:54.265Z,99884.47
2022-10-01T12:34:54.427Z,99897.16
2022-10-01T12:37:06.458Z,99911.38
2022-10-01T12:38:50.790Z,99899.91
2022-10-01T12:40:48.550Z,99900.03
2022-10-01T12:42:23.378Z,99897.03
2022-10-01T12:44:14.232Z,99885.72
2022-10-01T12:46:04.614Z,99883.09
2022-10-01T12:48:01.945Z,99878.50
2022-10-01T12:49:51.143Z,99880.19
2022-10-01T12:51:39.281Z,99875.59
2022-10-01T12:53:32.724Z,99894.00
2022-10-01T12:55:29.671Z,99897.47
2022-10-01T12:57:01.890Z,99902.75
2022-10-01T12:59:16.062Z,99895.03
2022-10-01T13:01:00.450Z,99881.53
2022-10-01T13:02:55.603Z,99877.59
2022-10-01T13:04:51.260Z,99878.03
2022-10-01T13:06:32.538Z,99883.19
2022-10-01T13:08:17.307Z,99894.72
2022-10-01T13:10:04.619Z,99902.34
2022-10-01T13:11:48.924Z,99909.06
2022-10-01T13:13:33.368Z,99906.66
2022-10-01T13:15:08.478Z,99901.31
2022-10-01T13:16:41.290Z,99897.63
2022-10-01T13:18:38.143Z,99886.78
2022-10-01T13:20:41.499Z,99876.16
2022-10-01T13:22:37.459Z,99860.22
2022-10-01T13:24:18.380Z,99842.34
2022-10-01T13:26:13.997Z,99833.19
2022-10-01T13:27:55.358Z,99817.88
2022-10-01T13:29:41.993Z,99813.88
2022-10-01T13:31:19.566Z,99800.28
2022-10-01T13:33:01.422Z,99796.28
2022-10-01T13:34:40.699Z,99787.94
2022-10-01T13:36:13.807Z,99792.09
2022-10-01T13:37:46.137Z,99796.63
2022-10-01T13:39:27.983Z,99790.38
2022-10-01T13:41:05.114Z,99787.16
2022-10-01T13:42:46.379Z,99786.50
2022-10-01T13:44:41.118Z,99777.03
2022-10-01T13:46:13.478Z,99781.91
2022-10-01T13:47:45.901Z,99776.81
2022-10-01T13:49:30.609Z,99768.69
2022-10-01T13:51:09.705Z,99765.19
2022-10-01T13:52:41.929Z,99754.22
2022-10-01T13:54:28.073Z,99759.50
2022-10-01T13:56:00.639Z,99772.38
2022-10-01T13:57:38.292Z,99778.59
2022-10-01T13:59:33.246Z,99786.53
2022-10-01T14:01:27.934Z,99792.00
2022-10-01T14:03:24.265Z,99789.47
2022-10-01T14:04:57.397Z,99777.44
2022-10-01T14:06:36.742Z,99792.34
2022-10-01T14:08:22.727Z,99794.22
2022-10-01T14:09:58.789Z,99808.38
2022-10-01T14:11:53.075Z,99815.44
2022-10-01T14:13:45.838Z,99814.72
2022-10-01T14:15:38.896Z,99814.72
2022-10-01T14:17:11.881Z,99802.66
2022-10-01T14:18:45.503Z,99792.97
2022-10-01T14:20:33.126Z,99775.44
2022-10-01T14:22:37.884Z,99764.88
2022-10-01T14:24:37.897Z,99747.16
2022-10-01T14:26:27.926Z,99753.28
2022-10-01T14:28:25.668Z,99747.25
2022-10-01T14:30:06.333Z,99740.31
2022-10-01T14:32:01.920Z,99741.03
2022-10-01T14:33:46.100Z,99744.41
2022-10-01T14:35:51.949Z,99749.91
2022-10-01T14:37:24.492Z,99742.22
2022-10-01T14:39:20.150Z,99729.66
2022-10-01T14:40:52.891Z,99729.00
2022-10-01T14:42:25.434Z,99723.84
2022-10-01T14:43:57.725Z,99718.56
2022-10-01T14:45:30.425Z,99716.03
2022-10-01T14:47:18.623Z,99714.03
2022-10-01T14:49:00.394Z,99700.19
2022-10-01T14:50:37.728Z,99695.16
2022-10-01T14:52:23.552Z,99692.50
2022-10-01T14:53:58.363Z,99691.03
2022-10-01T14:55:31.445Z,99695.47
2022-10-01T14:57:11.530Z,99689.97
2022-10-01T14:58:46.851Z,99674.91
2022-10-01T15:00:23.341Z,99684.06
2022-10-01T15:02:01.346Z,99687.66
2022-10-01T15:03:41.262Z,99680.69
2022-10-01T15:05:28.275Z,99682.38
2022-10-01T15:07:05.502Z,99687.84
2022-10-01T15:08:51.929Z,99685.22
2022-10-01T15:10:28.410Z,99672.91
2022-10-01T15:12:00.967Z,99670.56
2022-10-01T15:13:37.658Z,99666.16
2022-10-01T15:15:26.378Z,99670.56
2022-10-01T15:17:03.888Z,99668.16
2022-10-01T15:18:37.206Z,99671.84
2022-10-01T15:20:12.279Z,99667.41
2022-10-01T15:21:55.722Z,99664.03
2022-10-01T15:23:29.257Z,99659.81
2022-10-01T15:25:02.070Z,99653.59
2022-10-01T15:26:34.868Z,99654.75
2022-10-01T15:28:15.847Z,99659.00
2022-10-01T15:29:56.056Z,99662.47
2022-10-01T15:31:29.101Z,99663.53
2022-10-01T15:33:21.741Z,99664.38
2022-10-01T15:34:59.363Z,99662.06
2022-10-01T15:36:32.593Z,99659.59
2022-10-01T15:38:05.771Z,99653.59
2022-10-01T15:39:40.117Z,99646.53
2022-10-01T15:41:31.575Z,99646.44
2022-10-01T15:43:25.713Z,99640.31
2022-10-01T15:45:10.695Z,99639.69
2022-10-01T15:46:43.154Z,99635.78
2022-10-01T15:48:30.526Z,99641.81
2022-10-01T15:50:11.620Z,99637.56
2022-10-01T15:52:25.868Z,99632.41
2022-10-01T15:54:07.367Z,99627.31
2022-10-01T15:55:45.295Z,99620.56
2022-10-01T15:57:26.256Z,99625.09
2022-10-01T15:59:13.170Z,99621.72
2022-10-01T16:00:49.164Z,99608.03
2022-10-01T16:02:25.266Z,99612.56
2022-10-01T16:04:11.503Z,99604.75
2022-10-01T16:05:48.487Z,99597.06
2022-10-01T16:07:23.273Z,99604.97
2022-10-01T16:09:22.740Z,99586.63
2022-10-01T16:11:18.253Z,99584.09
2022-10-01T16:12:50.731Z,99573.34
2022-10-01T16:14:30.906Z,99575.03
2022-10-01T16:16:19.014Z,99569.97
2022-10-01T16:18:05.363Z,99559.66
2022-10-01T16:19:37.495Z,99557.75
2022-10-01T16:21:11.641Z,99546.38
2022-10-01T16:22:44.395Z,99547.63
2022-10-01T16:24:29.896Z,99538.16
2022-10-01T16:27:45.697Z,99542.22
2022-10-01T16:29:24.591Z,99545.81
2022-10-01T16:30:57.128Z,99542.78
2022-10-01T16:32:29.535Z,99539.31
2022-10-01T16:34:02.133Z,99531.59
2022-10-01T16:35:40.814Z,99523.59
2022-10-01T16:37:13.183Z,99516.16
2022-10-01T16:38:48.606Z,99516.16
2022-10-01T16:40:24.270Z,99514.38
2022-10-01T16:42:22.244Z,99514.50
2022-10-01T16:43:56.217Z,99511.75
2022-10-01T16:45:33.927Z,99498.91
2022-10-01T16:47:06.341Z,99507.13
2022-10-01T16:48:38.602Z,99504.66
2022-10-01T16:50:12.106Z,99504.78
2022-10-01T16:51:44.412Z,99503.19
2022-10-01T16:53:18.568Z,99505.81
2022-10-01T16:54:51.016Z,99501.59
2022-10-01T16:56:27.115Z,99495.72
2022-10-01T16:57:59.614Z,99482.03
2022-10-01T16:59:34.223Z,99480.34
2022-10-01T17:01:24.452Z,99481.09
2022-10-01T17:02:58.504Z,99473.59
2022-10-01T17:04:34.167Z,99474.84
2022-10-01T17:06:07.011Z,99468.84
2022-10-01T17:07:39.572Z,99457.75
2022-10-01T17:09:11.937Z,99460.53
2022-10-01T17:10:48.830Z,99459.56
2022-10-01T17:12:21.239Z,99454.59
2022-10-01T17:13:53.632Z,99465.22
2022-10-01T17:15:27.980Z,99454.78
2022-10-01T17:17:00.294Z,99447.22
2022-10-01T17:18:32.854Z,99434.28
2022-10-01T17:20:05.863Z,99441.22
2022-10-01T17:21:38.212Z,99436.25
2022-10-01T17:23:12.804Z,99435.44
2022-10-01T17:24:45.127Z,99432.25
2022-10-01T17:26:17.844Z,99422.78
2022-10-01T17:27:50.861Z,99432.38
2022-10-01T17:29:23.147Z,99429.09
2022-10-01T17:32:34.488Z,99429.56
2022-10-01T17:34:07.189Z,99430.53
2022-10-01T17:35:44.356Z,99433.03
2022-10-01T17:37:16.816Z,99438.47
2022-10-01T17:38:49.083Z,99439.63
2022-10-01T17:40:21.347Z,99430.06
2022-10-01T17:41:53.698Z,99422.34
2022-10-01T17:43:25.923Z,99426.03
2022-10-01T17:44:58.148Z,99424.34
2022-10-01T17:46:31.385Z,99434.00
2022-10-01T17:48:03.392Z,99434.84
2022-10-01T17:49:35.808Z,99437.78
2022-10-01T17:51:10.245Z,99429.16
2022-10-01T17:52:42.615Z,99423.25
2022-10-01T17:54:15.074Z,99417.16
2022-10-01T17:55:47.690Z,99410.22
2022-10-01T17:57:20.028Z,99417.16
2022-10-01T17:58:54.527Z,99415.47
2022-10-01T18:01:59.626Z,99423.94
2022-10-01T18:03:34.795Z,99413.34
2022-10-01T18:05:09.894Z,99408.06
2022-10-01T18:06:42.312Z,99425.72
2022-10-01T18:08:14.586Z,99411.75
2022-10-01T18:09:46.837Z,99416.06
2022-10-01T18:11:20.812Z,99417.00
2022-10-01T18:12:53.260Z,99416.44
2022-10-01T18:14:25.578Z,99414.69
2022-10-01T18:16:06.745Z,99419.81
2022-10-01T18:17:43.551Z,99417.56
2022-10-01T18:21:15.679Z,99397.81
2022-10-01T18:22:48.580Z,99382.97
2022-10-01T18:24:20.862Z,99363.00
2022-10-01T18:25:53.307Z,99349.97
2022-10-01T18:27:25.534Z,99350.91
2022-10-01T18:28:57.896Z,99350.25
2022-10-01T18:30:30.334Z,99358.22
2022-10-01T18:32:08.098Z,99358.06
2022-10-01T18:33:53.265Z,99357.19
2022-10-01T18:35:34.506Z,99354.69
2022-10-01T18:37:40.000Z,99337.31
2022-10-01T18:39:24.866Z,99336.38
2022-10-01T18:41:05.671Z,99343.44
2022-10-01T18:42:37.949Z,99340.22
2022-10-01T18:44:20.008Z,99340.34
2022-10-01T18:46:20.167Z,99355.16
2022-10-01T18:48:14.356Z,99346.53
2022-10-01T18:50:00.429Z,99341.38
2022-10-01T18:51:41.626Z,99326.75
2022-10-01T18:53:49.941Z,99319.00
2022-10-01T18:55:49.646Z,99313.91
2022-10-01T18:57:55.466Z,99329.66
2022-10-01T19:00:03.086Z,99341.13
2022-10-01T19:01:48.588Z,99340.38
2022-10-01T19:03:45.570Z,99333.34
2022-10-01T19:05:39.859Z,99319.56
2022-10-01T19:07:31.609Z,99317.03
2022-10-01T19:09:49.215Z,99324.41
2022-10-01T19:11:36.414Z,99324.63
2022-10-01T19:13:42.813Z,99313.38
2022-10-01T19:15:33.940Z,99298.00
2022-10-01T19:17:16.003Z,99283.94
2022-10-01T19:18:48.454Z,99270.28
2022-10-01T19:20:23.426Z,99252.00
2022-10-01T19:22:28.109Z,99246.56
2022-10-01T19:24:31.752Z,99257.06
2022-10-01T19:26:11.253Z,99271.09
2022-10-01T19:27:58.280Z,99265.94
2022-10-01T19:30:01.001Z,99270.19
2022-10-01T19:31:39.135Z,99269.31
2022-10-01T19:34:56.668Z,99266.69
2022-10-01T19:36:36.262Z,99273.72
2022-10-01T19:38:19.330Z,99274.78
2022-10-01T19:39:52.578Z,99281.97